sensor_id;sensor_type;location;lat;lon;timestamp;P1;durP1;ratioP1;P2;durP2;ratioP2
23434;SDS011;11890;45.380;11.028;2022-11-09T00:00:59;12.10;;;8.10;;
23434;SDS011;11890;45.380;11.028;2022-11-09T00:03:29;15.70;;;8.60;;
23434;SDS011;11890;45.380;11.028;2022-11-09T00:05:58;21.00;;;9.43;;
23434;SDS011;11890;45.380;11.028;2022-11-09T00:08:26;15.35;;;8.95;;
23434;SDS011;11890;45.380;11.028;2022-11-09T00:11:00;18.25;;;9.85;;
23434;SDS011;11890;45.380;11.028;2022-11-09T00:13:29;18.45;;;8.52;;
23434;SDS011;11890;45.380;11.028;2022-11-09T00:15:57;15.00;;;9.07;;
23434;SDS011;11890;45.380;11.028;2022-11-09T00:18:26;19.08;;;10.52;;
23434;SDS011;11890;45.380;11.028;2022-11-09T00:20:54;33.05;;;10.15;;
23434;SDS011;11890;45.380;11.028;2022-11-09T00:23:22;19.02;;;10.63;;
23434;SDS011;11890;45.380;11.028;2022-11-09T00:25:49;19.27;;;10.77;;
23434;SDS011;11890;45.380;11.028;2022-11-09T00:28:17;18.15;;;9.05;;
23434;SDS011;11890;45.380;11.028;2022-11-09T00:30:46;15.88;;;8.60;;
23434;SDS011;11890;45.380;11.028;2022-11-09T00:33:15;21.10;;;9.80;;
23434;SDS011;11890;45.380;11.028;2022-11-09T00:35:43;18.58;;;10.10;;
23434;SDS011;11890;45.380;11.028;2022-11-09T00:38:11;17.33;;;9.68;;
23434;SDS011;11890;45.380;11.028;2022-11-09T00:40:38;16.88;;;8.38;;
23434;SDS011;11890;45.380;11.028;2022-11-09T00:43:06;18.30;;;9.40;;
23434;SDS011;11890;45.380;11.028;2022-11-09T00:45:34;18.30;;;8.27;;
23434;SDS011;11890;45.380;11.028;2022-11-09T00:48:02;16.65;;;10.02;;
23434;SDS011;11890;45.380;11.028;2022-11-09T00:50:29;20.65;;;9.93;;
23434;SDS011;11890;45.380;11.028;2022-11-09T00:52:57;19.33;;;8.88;;
23434;SDS011;11890;45.380;11.028;2022-11-09T00:55:25;22.08;;;8.73;;
23434;SDS011;11890;45.380;11.028;2022-11-09T00:57:53;22.50;;;9.23;;
23434;SDS011;11890;45.380;11.028;2022-11-09T01:00:22;16.58;;;9.27;;
23434;SDS011;11890;45.380;11.028;2022-11-09T01:02:51;17.95;;;9.07;;
23434;SDS011;11890;45.380;11.028;2022-11-09T01:05:19;19.17;;;9.02;;
23434;SDS011;11890;45.380;11.028;2022-11-09T01:07:48;18.45;;;9.32;;
23434;SDS011;11890;45.380;11.028;2022-11-09T01:10:15;14.40;;;8.63;;
23434;SDS011;11890;45.380;11.028;2022-11-09T01:12:45;15.52;;;8.00;;
23434;SDS011;11890;45.380;11.028;2022-11-09T01:15:14;16.77;;;9.00;;
23434;SDS011;11890;45.380;11.028;2022-11-09T01:17:41;13.98;;;7.90;;
23434;SDS011;11890;45.380;11.028;2022-11-09T01:20:09;15.32;;;8.35;;
23434;SDS011;11890;45.380;11.028;2022-11-09T01:22:37;19.95;;;9.50;;
23434;SDS011;11890;45.380;11.028;2022-11-09T01:25:05;18.48;;;9.65;;
23434;SDS011;11890;45.380;11.028;2022-11-09T01:27:34;20.38;;;9.93;;
23434;SDS011;11890;45.380;11.028;2022-11-09T01:30:04;16.83;;;9.20;;
23434;SDS011;11890;45.380;11.028;2022-11-09T01:32:33;18.95;;;9.38;;
23434;SDS011;11890;45.380;11.028;2022-11-09T01:35:00;25.95;;;11.10;;
23434;SDS011;11890;45.380;11.028;2022-11-09T01:37:29;17.77;;;9.38;;
23434;SDS011;11890;45.380;11.028;2022-11-09T01:39:57;21.00;;;9.10;;
23434;SDS011;11890;45.380;11.028;2022-11-09T01:42:25;16.67;;;9.05;;
23434;SDS011;11890;45.380;11.028;2022-11-09T01:47:46;18.30;;;10.27;;
23434;SDS011;11890;45.380;11.028;2022-11-09T01:50:21;20.02;;;9.38;;
23434;SDS011;11890;45.380;11.028;2022-11-09T01:52:55;19.90;;;10.82;;
23434;SDS011;11890;45.380;11.028;2022-11-09T01:55:24;20.65;;;11.95;;
23434;SDS011;11890;45.380;11.028;2022-11-09T01:57:57;20.77;;;11.32;;
23434;SDS011;11890;45.380;11.028;2022-11-09T02:00:32;22.17;;;10.20;;
23434;SDS011;11890;45.380;11.028;2022-11-09T02:03:03;20.40;;;9.95;;
23434;SDS011;11890;45.380;11.028;2022-11-09T02:05:35;18.63;;;10.00;;
23434;SDS011;11890;45.380;11.028;2022-11-09T02:08:05;19.08;;;10.68;;
23434;SDS011;11890;45.380;11.028;2022-11-09T02:10:45;17.30;;;10.32;;
23434;SDS011;11890;45.380;11.028;2022-11-09T02:13:27;21.77;;;9.70;;
23434;SDS011;11890;45.380;11.028;2022-11-09T02:15:57;20.65;;;10.23;;
23434;SDS011;11890;45.380;11.028;2022-11-09T02:18:25;21.42;;;11.05;;
23434;SDS011;11890;45.380;11.028;2022-11-09T02:20:54;20.52;;;10.57;;
23434;SDS011;11890;45.380;11.028;2022-11-09T02:23:25;20.05;;;10.02;;
23434;SDS011;11890;45.380;11.028;2022-11-09T02:25:54;20.55;;;12.32;;
23434;SDS011;11890;45.380;11.028;2022-11-09T02:28:26;15.88;;;10.88;;
23434;SDS011;11890;45.380;11.028;2022-11-09T02:30:54;19.55;;;11.50;;
23434;SDS011;11890;45.380;11.028;2022-11-09T02:33:24;20.60;;;11.02;;
23434;SDS011;11890;45.380;11.028;2022-11-09T02:35:53;21.05;;;10.88;;
23434;SDS011;11890;45.380;11.028;2022-11-09T02:38:21;24.17;;;12.00;;
23434;SDS011;11890;45.380;11.028;2022-11-09T02:40:50;20.60;;;10.60;;
23434;SDS011;11890;45.380;11.028;2022-11-09T02:43:18;20.10;;;11.20;;
23434;SDS011;11890;45.380;11.028;2022-11-09T02:45:47;18.52;;;10.55;;
23434;SDS011;11890;45.380;11.028;2022-11-09T02:48:15;20.65;;;11.57;;
23434;SDS011;11890;45.380;11.028;2022-11-09T02:50:43;21.20;;;11.27;;
23434;SDS011;11890;45.380;11.028;2022-11-09T02:53:11;20.08;;;10.68;;
23434;SDS011;11890;45.380;11.028;2022-11-09T02:55:42;18.70;;;11.32;;
23434;SDS011;11890;45.380;11.028;2022-11-09T02:58:11;18.00;;;10.57;;
23434;SDS011;11890;45.380;11.028;2022-11-09T03:00:38;20.10;;;11.10;;
23434;SDS011;11890;45.380;11.028;2022-11-09T03:03:06;23.50;;;11.15;;
23434;SDS011;11890;45.380;11.028;2022-11-09T03:05:34;20.50;;;11.88;;
23434;SDS011;11890;45.380;11.028;2022-11-09T03:08:02;21.33;;;10.38;;
23434;SDS011;11890;45.380;11.028;2022-11-09T03:10:33;23.85;;;10.65;;
23434;SDS011;11890;45.380;11.028;2022-11-09T03:13:01;16.77;;;9.68;;
23434;SDS011;11890;45.380;11.028;2022-11-09T03:15:28;23.63;;;11.75;;
23434;SDS011;11890;45.380;11.028;2022-11-09T03:17:56;25.08;;;10.85;;
23434;SDS011;11890;45.380;11.028;2022-11-09T03:20:24;16.58;;;10.77;;
23434;SDS011;11890;45.380;11.028;2022-11-09T03:22:55;22.40;;;11.55;;
23434;SDS011;11890;45.380;11.028;2022-11-09T03:25:24;24.03;;;11.47;;
23434;SDS011;11890;45.380;11.028;2022-11-09T03:27:59;21.88;;;12.68;;
23434;SDS011;11890;45.380;11.028;2022-11-09T03:30:28;19.52;;;11.07;;
23434;SDS011;11890;45.380;11.028;2022-11-09T03:33:01;20.30;;;11.65;;
23434;SDS011;11890;45.380;11.028;2022-11-09T03:35:31;21.13;;;11.85;;
23434;SDS011;11890;45.380;11.028;2022-11-09T03:37:59;23.88;;;10.80;;
23434;SDS011;11890;45.380;11.028;2022-11-09T03:40:26;22.17;;;11.50;;
23434;SDS011;11890;45.380;11.028;2022-11-09T03:42:55;19.35;;;10.73;;
23434;SDS011;11890;45.380;11.028;2022-11-09T03:45:23;21.83;;;10.85;;
23434;SDS011;11890;45.380;11.028;2022-11-09T03:47:51;19.70;;;11.18;;
23434;SDS011;11890;45.380;11.028;2022-11-09T03:50:20;17.65;;;10.68;;
23434;SDS011;11890;45.380;11.028;2022-11-09T03:52:48;17.67;;;10.70;;
23434;SDS011;11890;45.380;11.028;2022-11-09T03:55:16;17.23;;;10.60;;
23434;SDS011;11890;45.380;11.028;2022-11-09T03:57:44;17.65;;;9.93;;
23434;SDS011;11890;45.380;11.028;2022-11-09T04:00:13;20.92;;;9.70;;
23434;SDS011;11890;45.380;11.028;2022-11-09T04:02:42;21.00;;;10.73;;
23434;SDS011;11890;45.380;11.028;2022-11-09T04:05:11;20.58;;;11.48;;
23434;SDS011;11890;45.380;11.028;2022-11-09T04:07:40;20.15;;;10.27;;
23434;SDS011;11890;45.380;11.028;2022-11-09T04:10:13;22.30;;;10.95;;
23434;SDS011;11890;45.380;11.028;2022-11-09T04:12:41;18.63;;;11.27;;
23434;SDS011;11890;45.380;11.028;2022-11-09T04:15:08;17.60;;;9.77;;
23434;SDS011;11890;45.380;11.028;2022-11-09T04:17:37;20.00;;;11.13;;
23434;SDS011;11890;45.380;11.028;2022-11-09T04:20:05;24.40;;;11.48;;
23434;SDS011;11890;45.380;11.028;2022-11-09T04:22:34;19.00;;;10.95;;
23434;SDS011;11890;45.380;11.028;2022-11-09T04:25:02;22.45;;;11.65;;
23434;SDS011;11890;45.380;11.028;2022-11-09T04:27:30;24.88;;;11.15;;
23434;SDS011;11890;45.380;11.028;2022-11-09T04:29:58;19.70;;;10.55;;
23434;SDS011;11890;45.380;11.028;2022-11-09T04:32:26;20.98;;;9.90;;
23434;SDS011;11890;45.380;11.028;2022-11-09T04:34:53;18.45;;;9.85;;
23434;SDS011;11890;45.380;11.028;2022-11-09T04:37:21;23.80;;;10.75;;
23434;SDS011;11890;45.380;11.028;2022-11-09T04:39:48;19.17;;;9.63;;
23434;SDS011;11890;45.380;11.028;2022-11-09T04:42:16;20.15;;;10.25;;
23434;SDS011;11890;45.380;11.028;2022-11-09T04:44:43;17.70;;;10.38;;
23434;SDS011;11890;45.380;11.028;2022-11-09T04:47:11;20.05;;;9.88;;
23434;SDS011;11890;45.380;11.028;2022-11-09T04:49:38;16.92;;;9.40;;
23434;SDS011;11890;45.380;11.028;2022-11-09T04:52:06;17.30;;;9.48;;
23434;SDS011;11890;45.380;11.028;2022-11-09T04:54:34;17.42;;;8.80;;
23434;SDS011;11890;45.380;11.028;2022-11-09T04:57:02;20.88;;;8.88;;
23434;SDS011;11890;45.380;11.028;2022-11-09T04:59:30;19.52;;;8.10;;
23434;SDS011;11890;45.380;11.028;2022-11-09T05:01:58;15.00;;;8.73;;
23434;SDS011;11890;45.380;11.028;2022-11-09T05:04:25;15.98;;;9.18;;
23434;SDS011;11890;45.380;11.028;2022-11-09T05:06:53;17.08;;;8.77;;
23434;SDS011;11890;45.380;11.028;2022-11-09T05:09:20;13.23;;;7.78;;
23434;SDS011;11890;45.380;11.028;2022-11-09T05:11:50;13.43;;;7.72;;
23434;SDS011;11890;45.380;11.028;2022-11-09T05:14:17;20.70;;;9.55;;
23434;SDS011;11890;45.380;11.028;2022-11-09T05:16:45;11.50;;;7.55;;
23434;SDS011;11890;45.380;11.028;2022-11-09T05:19:13;18.23;;;8.63;;
23434;SDS011;11890;45.380;11.028;2022-11-09T05:21:40;19.95;;;10.60;;
23434;SDS011;11890;45.380;11.028;2022-11-09T05:24:08;16.83;;;9.23;;
23434;SDS011;11890;45.380;11.028;2022-11-09T05:26:37;16.17;;;8.27;;
23434;SDS011;11890;45.380;11.028;2022-11-09T05:29:10;17.80;;;8.98;;
23434;SDS011;11890;45.380;11.028;2022-11-09T05:31:39;16.03;;;8.53;;
23434;SDS011;11890;45.380;11.028;2022-11-09T05:34:22;18.55;;;9.75;;
23434;SDS011;11890;45.380;11.028;2022-11-09T05:36:54;17.45;;;8.27;;
23434;SDS011;11890;45.380;11.028;2022-11-09T05:39:29;27.35;;;15.05;;
23434;SDS011;11890;45.380;11.028;2022-11-09T05:41:56;18.05;;;9.63;;
23434;SDS011;11890;45.380;11.028;2022-11-09T05:44:24;16.90;;;8.25;;
23434;SDS011;11890;45.380;11.028;2022-11-09T05:46:52;15.95;;;7.68;;
23434;SDS011;11890;45.380;11.028;2022-11-09T05:49:19;16.73;;;9.15;;
23434;SDS011;11890;45.380;11.028;2022-11-09T05:51:47;19.85;;;10.98;;
23434;SDS011;11890;45.380;11.028;2022-11-09T05:54:15;17.25;;;9.32;;
23434;SDS011;11890;45.380;11.028;2022-11-09T05:56:42;13.25;;;7.63;;
23434;SDS011;11890;45.380;11.028;2022-11-09T05:59:10;17.13;;;8.52;;
23434;SDS011;11890;45.380;11.028;2022-11-09T06:01:38;15.80;;;8.07;;
23434;SDS011;11890;45.380;11.028;2022-11-09T06:04:05;16.70;;;8.38;;
23434;SDS011;11890;45.380;11.028;2022-11-09T06:06:33;13.07;;;7.65;;
23434;SDS011;11890;45.380;11.028;2022-11-09T06:09:01;17.33;;;8.98;;
23434;SDS011;11890;45.380;11.028;2022-11-09T06:11:28;17.30;;;7.95;;
23434;SDS011;11890;45.380;11.028;2022-11-09T06:13:56;16.10;;;7.50;;
23434;SDS011;11890;45.380;11.028;2022-11-09T06:16:24;13.50;;;7.63;;
23434;SDS011;11890;45.380;11.028;2022-11-09T06:18:51;15.70;;;9.02;;
23434;SDS011;11890;45.380;11.028;2022-11-09T06:21:19;13.93;;;8.63;;
23434;SDS011;11890;45.380;11.028;2022-11-09T06:23:46;17.73;;;9.75;;
23434;SDS011;11890;45.380;11.028;2022-11-09T06:26:14;18.92;;;9.80;;
23434;SDS011;11890;45.380;11.028;2022-11-09T06:28:42;21.35;;;9.73;;
23434;SDS011;11890;45.380;11.028;2022-11-09T06:31:14;21.88;;;9.75;;
23434;SDS011;11890;45.380;11.028;2022-11-09T06:33:42;20.52;;;9.95;;
23434;SDS011;11890;45.380;11.028;2022-11-09T06:36:10;16.10;;;9.15;;
23434;SDS011;11890;45.380;11.028;2022-11-09T06:38:39;21.50;;;10.18;;
23434;SDS011;11890;45.380;11.028;2022-11-09T06:41:07;19.92;;;11.65;;
23434;SDS011;11890;45.380;11.028;2022-11-09T06:43:36;16.90;;;10.95;;
23434;SDS011;11890;45.380;11.028;2022-11-09T06:46:04;19.15;;;10.70;;
23434;SDS011;11890;45.380;11.028;2022-11-09T06:48:32;24.40;;;10.93;;
23434;SDS011;11890;45.380;11.028;2022-11-09T06:51:00;18.23;;;11.63;;
23434;SDS011;11890;45.380;11.028;2022-11-09T06:53:30;23.42;;;13.13;;
23434;SDS011;11890;45.380;11.028;2022-11-09T06:55:59;21.35;;;11.50;;
23434;SDS011;11890;45.380;11.028;2022-11-09T06:58:28;23.75;;;11.98;;
23434;SDS011;11890;45.380;11.028;2022-11-09T07:00:55;20.73;;;11.43;;
23434;SDS011;11890;45.380;11.028;2022-11-09T07:03:23;35.17;;;14.15;;
23434;SDS011;11890;45.380;11.028;2022-11-09T07:05:51;21.35;;;12.07;;
23434;SDS011;11890;45.380;11.028;2022-11-09T07:08:19;20.10;;;10.93;;
23434;SDS011;11890;45.380;11.028;2022-11-09T07:10:47;21.70;;;12.05;;
23434;SDS011;11890;45.380;11.028;2022-11-09T07:13:15;22.30;;;12.73;;
23434;SDS011;11890;45.380;11.028;2022-11-09T07:15:42;22.45;;;11.38;;
23434;SDS011;11890;45.380;11.028;2022-11-09T07:18:10;23.88;;;12.93;;
23434;SDS011;11890;45.380;11.028;2022-11-09T07:20:39;26.20;;;12.73;;
23434;SDS011;11890;45.380;11.028;2022-11-09T07:23:06;24.98;;;12.82;;
23434;SDS011;11890;45.380;11.028;2022-11-09T07:25:34;21.70;;;12.25;;
23434;SDS011;11890;45.380;11.028;2022-11-09T07:28:03;25.40;;;12.70;;
23434;SDS011;11890;45.380;11.028;2022-11-09T07:30:33;28.38;;;13.00;;
23434;SDS011;11890;45.380;11.028;2022-11-09T07:33:03;21.27;;;12.23;;
23434;SDS011;11890;45.380;11.028;2022-11-09T07:35:38;22.08;;;13.15;;
23434;SDS011;11890;45.380;11.028;2022-11-09T07:38:06;19.88;;;11.95;;
23434;SDS011;11890;45.380;11.028;2022-11-09T07:40:34;25.35;;;12.23;;
23434;SDS011;11890;45.380;11.028;2022-11-09T07:43:03;25.30;;;12.38;;
23434;SDS011;11890;45.380;11.028;2022-11-09T07:45:32;23.15;;;12.93;;
23434;SDS011;11890;45.380;11.028;2022-11-09T07:48:03;26.08;;;14.25;;
23434;SDS011;11890;45.380;11.028;2022-11-09T07:50:32;30.63;;;14.20;;
23434;SDS011;11890;45.380;11.028;2022-11-09T07:53:01;20.83;;;12.73;;
23434;SDS011;11890;45.380;11.028;2022-11-09T07:55:29;23.10;;;13.75;;
23434;SDS011;11890;45.380;11.028;2022-11-09T07:57:58;27.65;;;14.02;;
23434;SDS011;11890;45.380;11.028;2022-11-09T08:00:28;26.83;;;15.68;;
23434;SDS011;11890;45.380;11.028;2022-11-09T08:02:57;30.08;;;15.35;;
23434;SDS011;11890;45.380;11.028;2022-11-09T08:05:25;25.58;;;14.38;;
23434;SDS011;11890;45.380;11.028;2022-11-09T08:07:56;26.88;;;15.68;;
23434;SDS011;11890;45.380;11.028;2022-11-09T08:10:26;27.37;;;13.40;;
23434;SDS011;11890;45.380;11.028;2022-11-09T08:12:55;28.77;;;14.85;;
23434;SDS011;11890;45.380;11.028;2022-11-09T08:15:25;27.80;;;14.38;;
23434;SDS011;11890;45.380;11.028;2022-11-09T08:17:53;31.00;;;15.85;;
23434;SDS011;11890;45.380;11.028;2022-11-09T08:20:24;27.15;;;13.75;;
23434;SDS011;11890;45.380;11.028;2022-11-09T08:22:51;28.73;;;13.57;;
23434;SDS011;11890;45.380;11.028;2022-11-09T08:25:19;36.70;;;15.45;;
23434;SDS011;11890;45.380;11.028;2022-11-09T08:27:46;24.70;;;14.30;;
23434;SDS011;11890;45.380;11.028;2022-11-09T08:30:15;27.55;;;14.20;;
23434;SDS011;11890;45.380;11.028;2022-11-09T08:32:47;29.27;;;15.30;;
23434;SDS011;11890;45.380;11.028;2022-11-09T08:35:16;29.75;;;15.27;;
23434;SDS011;11890;45.380;11.028;2022-11-09T08:37:47;30.30;;;15.88;;
23434;SDS011;11890;45.380;11.028;2022-11-09T08:40:18;33.90;;;16.83;;
23434;SDS011;11890;45.380;11.028;2022-11-09T08:42:50;33.20;;;17.63;;
23434;SDS011;11890;45.380;11.028;2022-11-09T08:45:18;30.20;;;17.38;;
23434;SDS011;11890;45.380;11.028;2022-11-09T08:47:46;33.58;;;18.38;;
23434;SDS011;11890;45.380;11.028;2022-11-09T08:50:15;38.38;;;17.67;;
23434;SDS011;11890;45.380;11.028;2022-11-09T08:52:43;29.77;;;17.08;;
23434;SDS011;11890;45.380;11.028;2022-11-09T08:55:10;37.75;;;17.25;;
23434;SDS011;11890;45.380;11.028;2022-11-09T08:57:38;33.25;;;16.58;;
23434;SDS011;11890;45.380;11.028;2022-11-09T09:00:06;33.40;;;17.67;;
23434;SDS011;11890;45.380;11.028;2022-11-09T09:02:34;31.52;;;16.63;;
23434;SDS011;11890;45.380;11.028;2022-11-09T09:05:02;32.85;;;18.20;;
23434;SDS011;11890;45.380;11.028;2022-11-09T09:07:30;30.83;;;17.73;;
23434;SDS011;11890;45.380;11.028;2022-11-09T09:09:57;35.35;;;17.60;;
23434;SDS011;11890;45.380;11.028;2022-11-09T09:12:25;32.78;;;17.60;;
23434;SDS011;11890;45.380;11.028;2022-11-09T09:14:53;29.83;;;17.13;;
23434;SDS011;11890;45.380;11.028;2022-11-09T09:17:21;29.88;;;17.38;;
23434;SDS011;11890;45.380;11.028;2022-11-09T09:19:48;38.47;;;18.88;;
23434;SDS011;11890;45.380;11.028;2022-11-09T09:22:16;28.52;;;17.83;;
23434;SDS011;11890;45.380;11.028;2022-11-09T09:24:44;31.90;;;17.35;;
23434;SDS011;11890;45.380;11.028;2022-11-09T09:27:12;31.25;;;17.42;;
23434;SDS011;11890;45.380;11.028;2022-11-09T09:29:40;31.33;;;17.73;;
23434;SDS011;11890;45.380;11.028;2022-11-09T09:32:07;31.75;;;18.25;;
23434;SDS011;11890;45.380;11.028;2022-11-09T09:34:35;32.60;;;17.55;;
23434;SDS011;11890;45.380;11.028;2022-11-09T09:37:03;36.25;;;18.30;;
23434;SDS011;11890;45.380;11.028;2022-11-09T09:39:30;35.85;;;18.42;;
23434;SDS011;11890;45.380;11.028;2022-11-09T09:41:59;35.78;;;19.67;;
23434;SDS011;11890;45.380;11.028;2022-11-09T09:47:13;36.22;;;20.75;;
23434;SDS011;11890;45.380;11.028;2022-11-09T09:49:46;38.17;;;19.42;;
23434;SDS011;11890;45.380;11.028;2022-11-09T09:52:36;33.60;;;18.98;;
23434;SDS011;11890;45.380;11.028;2022-11-09T09:57:40;35.88;;;20.55;;
23434;SDS011;11890;45.380;11.028;2022-11-09T10:00:17;37.90;;;21.63;;
23434;SDS011;11890;45.380;11.028;2022-11-09T10:02:51;39.47;;;19.70;;
23434;SDS011;11890;45.380;11.028;2022-11-09T10:05:19;32.35;;;18.58;;
23434;SDS011;11890;45.380;11.028;2022-11-09T10:08:08;35.17;;;19.65;;
23434;SDS011;11890;45.380;11.028;2022-11-09T10:10:46;38.85;;;21.23;;
23434;SDS011;11890;45.380;11.028;2022-11-09T10:21:52;33.45;;;20.35;;
23434;SDS011;11890;45.380;11.028;2022-11-09T10:27:36;37.05;;;21.20;;
23434;SDS011;11890;45.380;11.028;2022-11-09T10:30:12;41.15;;;23.95;;
23434;SDS011;11890;45.380;11.028;2022-11-09T10:32:43;44.90;;;23.35;;
23434;SDS011;11890;45.380;11.028;2022-11-09T10:37:52;42.55;;;22.70;;
23434;SDS011;11890;45.380;11.028;2022-11-09T10:40:38;43.67;;;22.98;;
23434;SDS011;11890;45.380;11.028;2022-11-09T10:43:37;45.05;;;24.38;;
23434;SDS011;11890;45.380;11.028;2022-11-09T10:46:23;44.45;;;23.52;;
23434;SDS011;11890;45.380;11.028;2022-11-09T10:49:17;40.30;;;21.98;;
23434;SDS011;11890;45.380;11.028;2022-11-09T10:52:05;51.60;;;27.55;;
23434;SDS011;11890;45.380;11.028;2022-11-09T10:55:31;41.75;;;25.15;;
23434;SDS011;11890;45.380;11.028;2022-11-09T10:58:30;43.85;;;24.10;;
23434;SDS011;11890;45.380;11.028;2022-11-09T11:01:19;42.00;;;22.73;;
23434;SDS011;11890;45.380;11.028;2022-11-09T11:04:18;45.22;;;24.58;;
23434;SDS011;11890;45.380;11.028;2022-11-09T11:07:17;43.25;;;24.98;;
23434;SDS011;11890;45.380;11.028;2022-11-09T11:15:50;43.53;;;25.35;;
23434;SDS011;11890;45.380;11.028;2022-11-09T11:18:37;44.10;;;23.75;;
23434;SDS011;11890;45.380;11.028;2022-11-09T11:21:33;44.20;;;25.63;;
23434;SDS011;11890;45.380;11.028;2022-11-09T11:24:19;46.83;;;23.60;;
23434;SDS011;11890;45.380;11.028;2022-11-09T11:27:20;44.38;;;24.70;;
23434;SDS011;11890;45.380;11.028;2022-11-09T11:30:24;41.63;;;24.35;;
23434;SDS011;11890;45.380;11.028;2022-11-09T11:33:14;42.53;;;24.33;;
23434;SDS011;11890;45.380;11.028;2022-11-09T11:36:06;46.03;;;25.75;;
23434;SDS011;11890;45.380;11.028;2022-11-09T11:51:26;32.90;;;21.70;;
23434;SDS011;11890;45.380;11.028;2022-11-09T12:03:41;37.85;;;22.60;;
23434;SDS011;11890;45.380;11.028;2022-11-09T12:06:39;40.53;;;23.70;;
23434;SDS011;11890;45.380;11.028;2022-11-09T12:21:59;42.88;;;22.60;;
23434;SDS011;11890;45.380;11.028;2022-11-09T12:40:59;42.08;;;23.20;;
23434;SDS011;11890;45.380;11.028;2022-11-09T12:43:57;39.78;;;22.27;;
23434;SDS011;11890;45.380;11.028;2022-11-09T12:49:51;41.38;;;24.75;;
23434;SDS011;11890;45.380;11.028;2022-11-09T12:52:40;40.95;;;23.58;;
23434;SDS011;11890;45.380;11.028;2022-11-09T12:55:41;41.00;;;23.52;;
23434;SDS011;11890;45.380;11.028;2022-11-09T12:58:36;48.35;;;25.50;;
23434;SDS011;11890;45.380;11.028;2022-11-09T13:04:20;45.13;;;24.25;;
23434;SDS011;11890;45.380;11.028;2022-11-09T13:10:01;39.60;;;24.23;;
23434;SDS011;11890;45.380;11.028;2022-11-09T13:12:48;42.88;;;24.77;;
23434;SDS011;11890;45.380;11.028;2022-11-09T13:15:34;46.55;;;24.70;;
23434;SDS011;11890;45.380;11.028;2022-11-09T13:18:23;49.25;;;25.60;;
23434;SDS011;11890;45.380;11.028;2022-11-09T13:24:49;43.40;;;25.20;;
23434;SDS011;11890;45.380;11.028;2022-11-09T13:36:14;37.42;;;22.25;;
23434;SDS011;11890;45.380;11.028;2022-11-09T13:48:38;31.13;;;19.25;;
23434;SDS011;11890;45.380;11.028;2022-11-09T13:54:31;31.40;;;17.88;;
23434;SDS011;11890;45.380;11.028;2022-11-09T13:57:19;29.38;;;16.75;;
23434;SDS011;11890;45.380;11.028;2022-11-09T14:00:21;35.03;;;16.50;;
23434;SDS011;11890;45.380;11.028;2022-11-09T14:03:20;29.63;;;18.63;;
23434;SDS011;11890;45.380;11.028;2022-11-09T14:06:09;28.88;;;17.55;;
23434;SDS011;11890;45.380;11.028;2022-11-09T14:08:57;29.42;;;18.63;;
23434;SDS011;11890;45.380;11.028;2022-11-09T14:11:49;30.02;;;17.48;;
23434;SDS011;11890;45.380;11.028;2022-11-09T14:21:30;34.72;;;21.30;;
23434;SDS011;11890;45.380;11.028;2022-11-09T14:24:31;37.50;;;19.60;;
23434;SDS011;11890;45.380;11.028;2022-11-09T14:27:21;36.20;;;19.98;;
23434;SDS011;11890;45.380;11.028;2022-11-09T14:30:16;35.83;;;18.95;;
23434;SDS011;11890;45.380;11.028;2022-11-09T14:33:20;29.40;;;17.85;;
23434;SDS011;11890;45.380;11.028;2022-11-09T14:36:09;33.55;;;19.40;;
23434;SDS011;11890;45.380;11.028;2022-11-09T14:38:58;39.10;;;19.13;;
23434;SDS011;11890;45.380;11.028;2022-11-09T14:41:49;33.88;;;18.50;;
23434;SDS011;11890;45.380;11.028;2022-11-09T14:44:36;28.50;;;17.20;;
23434;SDS011;11890;45.380;11.028;2022-11-09T14:47:31;28.60;;;16.55;;
23434;SDS011;11890;45.380;11.028;2022-11-09T14:50:22;29.17;;;17.42;;
23434;SDS011;11890;45.380;11.028;2022-11-09T14:53:12;32.10;;;17.75;;
23434;SDS011;11890;45.380;11.028;2022-11-09T14:56:20;29.35;;;16.90;;
23434;SDS011;11890;45.380;11.028;2022-11-09T14:59:08;30.35;;;17.55;;
23434;SDS011;11890;45.380;11.028;2022-11-09T15:02:03;30.55;;;17.15;;
23434;SDS011;11890;45.380;11.028;2022-11-09T15:04:56;29.92;;;16.58;;
23434;SDS011;11890;45.380;11.028;2022-11-09T15:07:44;30.80;;;18.48;;
23434;SDS011;11890;45.380;11.028;2022-11-09T15:10:32;30.52;;;17.40;;
23434;SDS011;11890;45.380;11.028;2022-11-09T15:13:19;30.38;;;17.67;;
23434;SDS011;11890;45.380;11.028;2022-11-09T15:16:25;29.40;;;16.90;;
23434;SDS011;11890;45.380;11.028;2022-11-09T15:28:26;35.75;;;17.63;;
23434;SDS011;11890;45.380;11.028;2022-11-09T15:31:14;32.92;;;15.73;;
23434;SDS011;11890;45.380;11.028;2022-11-09T15:34:18;31.60;;;17.20;;
23434;SDS011;11890;45.380;11.028;2022-11-09T15:40:34;28.90;;;15.45;;
23434;SDS011;11890;45.380;11.028;2022-11-09T15:43:20;32.05;;;15.63;;
23434;SDS011;11890;45.380;11.028;2022-11-09T15:46:06;28.80;;;14.32;;
23434;SDS011;11890;45.380;11.028;2022-11-09T15:48:53;26.02;;;14.65;;
23434;SDS011;11890;45.380;11.028;2022-11-09T15:51:43;29.23;;;13.70;;
23434;SDS011;11890;45.380;11.028;2022-11-09T15:54:30;20.85;;;12.40;;
23434;SDS011;11890;45.380;11.028;2022-11-09T15:57:17;31.45;;;15.10;;
23434;SDS011;11890;45.380;11.028;2022-11-09T16:00:04;27.92;;;12.85;;
23434;SDS011;11890;45.380;11.028;2022-11-09T16:02:58;27.02;;;14.70;;
23434;SDS011;11890;45.380;11.028;2022-11-09T16:05:44;27.40;;;14.10;;
23434;SDS011;11890;45.380;11.028;2022-11-09T16:08:30;29.98;;;14.48;;
23434;SDS011;11890;45.380;11.028;2022-11-09T16:11:16;38.78;;;18.92;;
23434;SDS011;11890;45.380;11.028;2022-11-09T16:14:03;27.45;;;14.88;;
23434;SDS011;11890;45.380;11.028;2022-11-09T16:16:49;23.98;;;13.30;;
23434;SDS011;11890;45.380;11.028;2022-11-09T16:19:35;22.48;;;13.55;;
23434;SDS011;11890;45.380;11.028;2022-11-09T16:22:27;22.20;;;12.88;;
23434;SDS011;11890;45.380;11.028;2022-11-09T16:25:14;25.77;;;13.82;;
23434;SDS011;11890;45.380;11.028;2022-11-09T16:28:01;20.38;;;12.25;;
23434;SDS011;11890;45.380;11.028;2022-11-09T16:30:46;21.20;;;11.63;;
23434;SDS011;11890;45.380;11.028;2022-11-09T16:33:33;20.83;;;13.13;;
23434;SDS011;11890;45.380;11.028;2022-11-09T16:36:20;25.02;;;11.88;;
23434;SDS011;11890;45.380;11.028;2022-11-09T16:39:08;19.25;;;10.45;;
23434;SDS011;11890;45.380;11.028;2022-11-09T16:42:04;20.70;;;10.83;;
23434;SDS011;11890;45.380;11.028;2022-11-09T16:44:52;23.67;;;13.35;;
23434;SDS011;11890;45.380;11.028;2022-11-09T16:47:44;23.05;;;13.45;;
23434;SDS011;11890;45.380;11.028;2022-11-09T16:50:33;20.60;;;12.77;;
23434;SDS011;11890;45.380;11.028;2022-11-09T16:53:19;23.63;;;13.15;;
23434;SDS011;11890;45.380;11.028;2022-11-09T16:56:11;21.98;;;12.13;;
23434;SDS011;11890;45.380;11.028;2022-11-09T16:58:58;23.33;;;12.75;;
23434;SDS011;11890;45.380;11.028;2022-11-09T17:01:57;23.08;;;12.18;;
23434;SDS011;11890;45.380;11.028;2022-11-09T17:04:44;22.17;;;11.60;;
23434;SDS011;11890;45.380;11.028;2022-11-09T17:07:30;21.25;;;11.73;;
23434;SDS011;11890;45.380;11.028;2022-11-09T17:10:27;25.35;;;13.18;;